Terminal Aerodrome Forecast
Issued by NWS Wilmington, NC

Home | Current Version | Previous Version | Text Only | Print | Product List | Glossary On
Versions: 1 2 3 4 5 6 7 8 9 10 11 12 13 14 15 16 17 18
000
FTUS42 KILM 241100 CCA
TAFMYR
TAF COR
KMYR 241152Z 2412/2512 21007KT 1SM BR VCSH BKN002
     FM241400 21012G16KT 5SM -RA BR BKN006
     FM241600 21011G20KT 6SM BR VCSH BKN007 OVC015
     FM250000 22008KT 2SM BR SCT003 BKN008=

USA.gov is the U.S. government's official web portal to all federal, state and local government web resources and services.